Time;durP1;ratioP1;P1;durP2;ratioP2;P2;SDS_P1;SDS_P2;PMS_P1;PMS_P2;Temp;Humidity;BMP_temperature;BMP_pressure;BME280_temperature;BME280_humidity;BME280_pressure;Samples;Min_cycle;Max_cycle;Signal;HPM_P1;HPM_P2
2022/08/21 00:00:11;;;;;;;8.85;5.40;;;;;;;13.88;100.00;101471.69;173368;28;923;-67
2022/08/21 00:00:24;;;;;;;9.59;5.44;;;;;;;13.87;100.00;101475.25;173217;28;1713;-66
2022/08/21 00:00:31;;;;;;;10.76;5.75;;;;;;;13.87;100.00;101470.00;173269;28;1241;-66
2022/08/21 00:00:38;;;;;;;9.50;5.72;;;;;;;13.87;100.00;101467.38;173340;28;907;-66
2022/08/21 00:00:43;;;;;;;8.80;5.70;;;;;;;13.86;100.00;101474.38;173397;28;895;-66
2022/08/21 00:00:49;;;;;;;8.30;5.65;;;;;;;13.85;100.00;101470.06;172590;28;1050;-66
2022/08/21 00:00:55;;;;;;;7.40;5.57;;;;;;;13.86;100.00;101471.75;172662;28;959;-66
2022/08/21 00:01:06;;;;;;;7.20;5.45;;;;;;;13.85;100.00;101470.06;172579;28;924;-66
2022/08/21 00:01:17;;;;;;;9.03;5.63;;;;;;;13.86;100.00;101473.56;173894;28;1501;-66
2022/08/21 00:01:28;;;;;;;10.06;5.72;;;;;;;13.85;100.00;101466.59;173238;28;1508;-66
2022/08/21 00:01:34;;;;;;;9.53;5.63;;;;;;;13.84;100.00;101471.00;173356;28;1069;-66
2022/08/21 00:01:39;;;;;;;8.85;5.55;;;;;;;13.84;100.00;101468.38;173368;28;1053;-66
2022/08/21 00:01:45;;;;;;;9.60;5.57;;;;;;;13.85;100.00;101471.84;173314;28;1046;-66
2022/08/21 00:01:51;;;;;;;9.93;5.70;;;;;;;13.84;100.00;101476.25;173340;28;938;-66
2022/08/21 00:01:56;;;;;;;10.30;5.82;;;;;;;13.85;100.00;101472.69;173367;28;1132;-66
2022/08/21 00:02:03;;;;;;;10.38;5.90;;;;;;;13.85;100.00;101469.22;173336;28;1013;-66
2022/08/21 00:02:28;;;;;;;11.07;5.85;;;;;;;13.85;100.00;101472.69;173378;28;927;-65
2022/08/21 00:02:33;;;;;;;9.65;5.75;;;;;;;13.84;100.00;101465.75;173321;28;1227;-65
2022/08/21 00:03:09;;;;;;;9.70;5.65;;;;;;;13.84;100.00;101471.00;173374;28;1178;-65
2022/08/21 00:03:15;;;;;;;9.24;5.78;;;;;;;13.86;100.00;101468.31;172861;28;1597;-67
2022/08/21 00:03:20;;;;;;;7.70;5.72;;;;;;;13.85;100.00;101470.06;173540;28;926;-66
2022/08/21 00:03:26;;;;;;;7.73;5.67;;;;;;;13.84;100.00;101478.88;174060;28;1147;-65
2022/08/21 00:03:32;;;;;;;8.33;5.57;;;;;;;13.85;100.00;101472.69;174024;28;938;-65
2022/08/21 00:03:38;;;;;;;8.26;5.52;;;;;;;13.84;100.00;101468.38;174047;28;927;-66
2022/08/21 00:03:43;;;;;;;8.47;5.47;;;;;;;13.85;100.00;101472.69;173969;28;1454;-66
2022/08/21 00:03:49;;;;;;;8.25;5.35;;;;;;;13.84;100.00;101468.38;173938;28;1100;-66
2022/08/21 00:03:55;;;;;;;9.18;5.38;;;;;;;13.85;100.00;101466.59;174027;28;855;-66
2022/08/21 00:04:07;;;;;;;8.95;5.45;;;;;;;13.85;100.00;101477.94;174008;28;966;-66
2022/08/21 00:04:13;;;;;;;9.15;5.55;;;;;;;13.85;100.00;101466.59;174013;28;1222;-65
2022/08/21 00:04:18;;;;;;;9.63;5.67;;;;;;;13.84;100.00;101471.00;173247;28;886;-66
2022/08/21 00:04:24;;;;;;;8.82;5.60;;;;;;;13.85;100.00;101472.69;173345;28;959;-65
2022/08/21 00:04:30;;;;;;;9.13;5.50;;;;;;;13.84;100.00;101467.50;173344;28;955;-65
2022/08/21 00:04:35;;;;;;;8.82;5.50;;;;;;;13.84;100.00;101471.00;172584;28;970;-65
2022/08/21 00:04:41;;;;;;;9.03;5.47;;;;;;;13.84;100.00;101471.00;172740;28;883;-65
2022/08/21 00:04:47;;;;;;;8.77;5.47;;;;;;;13.86;100.00;101470.94;172688;28;1073;-66
2022/08/21 00:04:54;;;;;;;8.77;5.40;;;;;;;13.84;100.00;101465.75;172683;28;1002;-66
2022/08/21 00:04:59;;;;;;;8.84;5.50;;;;;;;13.83;100.00;101464.06;172655;28;1042;-66
2022/08/21 00:05:05;;;;;;;10.57;5.50;;;;;;;13.83;100.00;101466.69;172666;28;855;-67
2022/08/21 00:05:11;;;;;;;11.30;5.57;;;;;;;13.82;100.00;101464.97;172710;28;989;-67
2022/08/21 00:05:16;;;;;;;11.03;5.53;;;;;;;13.82;100.00;101472.84;172671;28;1109;-66
2022/08/21 00:05:23;;;;;;;11.32;5.57;;;;;;;13.82;100.00;101470.22;172674;28;884;-67
2022/08/21 00:05:32;;;;;;;11.32;5.74;;;;;;;13.84;100.00;101470.13;172660;28;998;-67
2022/08/21 00:05:43;;;;;;;9.54;5.87;;;;;;;13.83;100.00;101473.69;171890;28;1348;-67
2022/08/21 00:05:50;;;;;;;8.26;5.80;;;;;;;13.82;100.00;101472.00;171121;28;1511;-67
2022/08/21 00:05:56;;;;;;;7.67;5.70;;;;;;;13.81;100.00;101465.88;171297;28;1074;-67
2022/08/21 00:06:02;;;;;;;7.00;5.60;;;;;;;13.81;100.00;101468.50;171304;28;927;-66
2022/08/21 00:06:08;;;;;;;7.83;5.47;;;;;;;13.81;100.00;101473.75;171336;28;871;-66
2022/08/21 00:06:14;;;;;;;7.93;5.53;;;;;;;13.81;100.00;101471.13;171346;28;986;-66
2022/08/21 00:06:19;;;;;;;8.98;5.70;;;;;;;13.81;100.00;101463.25;172004;28;1026;-66
2022/08/21 00:06:25;;;;;;;9.07;5.70;;;;;;;13.80;100.00;101472.06;171991;28;1101;-66
2022/08/21 00:06:30;;;;;;;9.15;5.80;;;;;;;13.81;100.00;101468.50;171989;28;870;-66
2022/08/21 00:06:37;;;;;;;8.47;5.87;;;;;;;13.81;100.00;101465.88;172546;28;786;-66
2022/08/21 00:06:42;;;;;;;9.47;5.90;;;;;;;13.82;100.00;101467.59;172693;28;919;-66
2022/08/21 00:06:50;;;;;;;8.83;5.77;;;;;;;13.81;100.00;101465.88;172687;28;1017;-66
2022/08/21 00:06:57;;;;;;;8.83;5.77;;;;;;;13.81;100.00;101463.25;172521;28;1185;-67
2022/08/21 00:07:02;;;;;;;8.84;5.62;;;;;;;13.81;100.00;101460.66;172632;28;986;-65
2022/08/21 00:07:07;;;;;;;9.47;5.57;;;;;;;13.82;100.00;101466.75;172667;28;1026;-66
2022/08/21 00:07:14;;;;;;;8.93;5.60;;;;;;;13.80;100.00;101466.81;172670;28;1034;-65
2022/08/21 00:07:20;;;;;;;8.60;5.50;;;;;;;13.81;100.00;101470.28;172639;28;1074;-66
2022/08/21 00:07:26;;;;;;;8.97;5.43;;;;;;;13.81;100.00;101465.88;172681;28;950;-66
2022/08/21 00:07:32;;;;;;;8.53;5.40;;;;;;;13.81;100.00;101470.28;172650;28;848;-65
2022/08/21 00:07:38;;;;;;;7.90;5.27;;;;;;;13.81;100.00;101463.25;173208;28;970;-66
2022/08/21 00:07:43;;;;;;;8.32;5.20;;;;;;;13.81;100.00;101465.03;173380;28;1057;-65
2022/08/21 00:07:49;;;;;;;8.50;5.27;;;;;;;13.81;100.00;101471.13;173346;28;919;-65
2022/08/21 00:07:55;;;;;;;7.93;5.40;;;;;;;13.80;100.00;101464.19;173315;28;982;-65
2022/08/21 00:08:00;;;;;;;7.50;5.38;;;;;;;13.81;100.00;101468.50;173278;28;1022;-65
2022/08/21 00:08:07;;;;;;;7.80;5.40;;;;;;;13.80;100.00;101469.44;172555;28;1622;-65
2022/08/21 00:08:13;;;;;;;7.96;5.40;;;;;;;13.79;100.00;101465.09;172686;28;983;-65
2022/08/21 00:08:20;;;;;;;8.38;5.40;;;;;;;13.80;100.00;101468.59;172658;28;1014;-65
2022/08/21 00:08:25;;;;;;;9.10;5.32;;;;;;;13.80;100.00;101469.44;172627;28;1002;-65
2022/08/21 00:08:31;;;;;;;9.17;5.40;;;;;;;13.79;100.00;101467.72;172668;28;1021;-65
2022/08/21 00:08:36;;;;;;;8.63;5.30;;;;;;;13.80;100.00;101473.81;172570;28;1069;-65
2022/08/21 00:08:42;;;;;;;8.57;5.27;;;;;;;13.79;100.00;101467.72;172587;28;959;-65
2022/08/21 00:08:47;;;;;;;8.23;5.20;;;;;;;13.80;100.00;101461.56;172653;28;1058;-65
2022/08/21 00:08:53;;;;;;;8.85;5.10;;;;;;;13.80;100.00;101469.44;171923;28;920;-65
2022/08/21 00:08:58;;;;;;;9.00;5.00;;;;;;;13.79;100.00;101470.34;171917;28;1505;-65
2022/08/21 00:09:07;;;;;;;10.07;5.07;;;;;;;13.80;100.00;101466.81;171991;28;851;-66
2022/08/21 00:09:13;;;;;;;11.34;5.36;;;;;;;13.79;100.00;101467.72;172019;28;1150;-65
2022/08/21 00:09:19;;;;;;;11.97;5.63;;;;;;;13.79;100.00;101472.97;171990;28;967;-65
2022/08/21 00:09:25;;;;;;;11.20;5.76;;;;;;;13.80;100.00;101468.59;171956;28;1018;-66
2022/08/21 00:09:30;;;;;;;10.97;5.80;;;;;;;13.78;100.00;101468.66;171963;28;1042;-66
2022/08/21 00:09:37;;;;;;;9.52;5.70;;;;;;;13.79;100.00;101470.34;171977;28;971;-66
2022/08/21 00:09:43;;;;;;;8.93;5.73;;;;;;;13.79;100.00;101467.72;172060;28;990;-67
2022/08/21 00:09:48;;;;;;;9.38;5.80;;;;;;;13.79;100.00;101467.72;171978;28;1161;-66
2022/08/21 00:09:54;;;;;;;9.50;5.78;;;;;;;13.79;100.00;101462.47;171996;28;1120;-66
2022/08/21 00:09:59;;;;;;;9.20;5.77;;;;;;;13.80;100.00;101468.59;171981;28;920;-66
2022/08/21 00:10:06;;;;;;;10.05;6.00;;;;;;;13.80;100.00;101463.34;172908;28;1052;-66
2022/08/21 00:10:12;;;;;;;10.20;6.00;;;;;;;13.80;100.00;101469.44;173419;28;1140;-66
2022/08/21 00:10:20;;;;;;;9.90;5.84;;;;;;;13.80;100.00;101469.44;173342;28;1057;-66
2022/08/21 00:10:26;;;;;;;10.00;5.78;;;;;;;13.80;100.00;101469.44;173330;28;930;-66
2022/08/21 00:10:31;;;;;;;9.93;5.65;;;;;;;13.80;100.00;101464.19;173253;28;994;-66
2022/08/21 00:10:40;;;;;;;9.73;5.57;;;;;;;13.80;100.00;101464.19;173350;28;1014;-66
2022/08/21 00:10:47;;;;;;;8.73;5.40;;;;;;;13.81;100.00;101468.50;172669;28;1144;-66
2022/08/21 00:10:52;;;;;;;8.38;5.54;;;;;;;13.81;100.00;101465.88;173079;28;998;-66
2022/08/21 00:10:57;;;;;;;8.37;5.53;;;;;;;13.82;100.00;101470.22;173712;28;1013;-66
2022/08/21 00:11:06;;;;;;;8.93;5.60;;;;;;;13.82;100.00;101464.97;173991;28;1109;-65
2022/08/21 00:11:12;;;;;;;9.45;5.55;;;;;;;13.83;100.00;101464.06;174052;28;972;-66
2022/08/21 00:11:20;;;;;;;9.74;5.60;;;;;;;13.83;100.00;101463.19;173997;28;1033;-65
2022/08/21 00:11:26;;;;;;;9.93;5.73;;;;;;;13.83;100.00;101464.06;174065;28;1154;-66
2022/08/21 00:11:35;;;;;;;9.64;5.72;;;;;;;13.83;100.00;101469.31;174012;28;915;-66
2022/08/21 00:11:40;;;;;;;9.12;5.80;;;;;;;13.84;100.00;101467.50;174009;28;1093;-66
2022/08/21 00:11:47;;;;;;;9.50;5.73;;;;;;;13.83;100.00;101464.06;174005;28;1137;-66
2022/08/21 00:11:53;;;;;;;9.20;5.70;;;;;;;13.83;100.00;101469.31;174029;28;986;-66
2022/08/21 00:11:58;;;;;;;9.17;5.73;;;;;;;13.82;100.00;101467.59;173293;28;1451;-66
2022/08/21 00:12:05;;;;;;;8.80;5.80;;;;;;;13.84;100.00;101470.13;173016;28;946;-66
2022/08/21 00:12:10;;;;;;;8.73;5.90;;;;;;;13.83;100.00;101464.06;172551;28;1294;-66
2022/08/21 00:12:16;;;;;;;8.10;5.80;;;;;;;13.84;100.00;101471.00;172619;28;970;-65
2022/08/21 00:12:21;;;;;;;9.77;5.83;;;;;;;13.83;100.00;101469.31;172665;28;1042;-66
2022/08/21 00:12:27;;;;;;;9.75;5.88;;;;;;;13.82;100.00;101464.97;171898;28;1797;-65
2022/08/21 00:12:32;;;;;;;9.97;5.87;;;;;;;13.81;100.00;101460.66;172633;28;1019;-65
2022/08/21 00:12:39;;;;;;;10.57;5.85;;;;;;;13.81;100.00;101463.25;172679;28;991;-65
2022/08/21 00:12:46;;;;;;;10.70;5.82;;;;;;;13.82;100.00;101464.13;172677;28;1009;-66
2022/08/21 00:12:52;;;;;;;9.25;5.80;;;;;;;13.82;100.00;101462.34;172655;28;963;-66
2022/08/21 00:12:57;;;;;;;9.40;5.70;;;;;;;13.81;100.00;101465.88;172588;28;864;-66
2022/08/21 00:13:05;;;;;;;9.30;5.60;;;;;;;13.81;100.00;101455.41;172653;28;914;-66
2022/08/21 00:13:12;;;;;;;9.24;5.72;;;;;;;13.81;100.00;101470.28;172634;28;1418;-66
2022/08/21 00:13:19;;;;;;;9.28;5.72;;;;;;;13.80;100.00;101458.09;172645;28;951;-65
2022/08/21 00:13:25;;;;;;;8.87;5.70;;;;;;;13.80;100.00;101469.44;172673;28;883;-66
2022/08/21 00:13:30;;;;;;;9.17;5.87;;;;;;;13.79;100.00;101462.47;172667;28;1100;-66
2022/08/21 00:13:37;;;;;;;9.30;6.07;;;;;;;13.79;100.00;101465.09;171880;28;950;-66
2022/08/21 00:13:42;;;;;;;9.35;6.20;;;;;;;13.80;100.00;101463.34;172044;28;934;-66
2022/08/21 00:13:47;;;;;;;10.18;6.35;;;;;;;13.78;100.00;101466.03;172025;28;923;-66
2022/08/21 00:13:54;;;;;;;10.37;6.50;;;;;;;13.79;100.00;101462.47;171971;28;1280;-66
2022/08/21 00:14:00;;;;;;;10.32;6.42;;;;;;;13.78;100.00;101460.78;172614;28;1089;-66
2022/08/21 00:14:08;;;;;;;10.47;6.23;;;;;;;13.78;100.00;101461.66;172654;28;1033;-66
2022/08/21 00:14:15;;;;;;;9.53;6.03;;;;;;;13.79;100.00;101462.47;172634;28;1055;-66
2022/08/21 00:14:21;;;;;;;9.33;5.90;;;;;;;13.78;100.00;101466.03;172686;28;879;-66
2022/08/21 00:14:26;;;;;;;9.40;5.80;;;;;;;13.79;100.00;101457.22;173101;28;906;-66
2022/08/21 00:14:33;;;;;;;8.63;5.85;;;;;;;13.79;100.00;101467.72;172592;28;914;-66
2022/08/21 00:14:38;;;;;;;8.90;5.90;;;;;;;13.78;100.00;101461.66;172616;28;1097;-66
2022/08/21 00:14:44;;;;;;;8.75;5.85;;;;;;;13.79;100.00;101462.47;171902;28;1520;-66
2022/08/21 00:14:50;;;;;;;9.33;5.93;;;;;;;13.79;100.00;101457.22;171908;28;851;-66
2022/08/21 00:14:55;;;;;;;9.27;5.90;;;;;;;13.80;100.00;101466.81;171968;28;890;-66
2022/08/21 00:15:00;;;;;;;9.70;5.85;;;;;;;13.80;100.00;101463.34;171972;28;843;-66
2022/08/21 00:15:09;;;;;;;10.27;5.90;;;;;;;13.79;100.00;101467.72;171989;28;855;-66
2022/08/21 00:15:21;;;;;;;10.58;6.05;;;;;;;13.80;100.00;101469.44;172016;28;1149;-66
2022/08/21 00:15:31;;;;;;;9.32;5.97;;;;;;;13.80;100.00;101458.94;171216;28;1886;-66
2022/08/21 00:15:38;;;;;;;8.61;6.03;;;;;;;13.80;100.00;101465.97;171173;28;1419;-67
2022/08/21 00:15:44;;;;;;;9.62;5.98;;;;;;;13.80;100.00;101465.97;171182;28;2160;-67
2022/08/21 00:15:50;;;;;;;10.18;6.18;;;;;;;13.80;100.00;101468.59;171356;28;868;-66
2022/08/21 00:15:55;;;;;;;10.93;6.10;;;;;;;13.80;100.00;101465.97;171293;28;1034;-67
2022/08/21 00:16:03;;;;;;;10.67;6.10;;;;;;;13.79;100.00;101462.47;171323;28;914;-66
2022/08/21 00:16:10;;;;;;;10.35;5.98;;;;;;;13.79;100.00;101467.72;171317;28;994;-67
2022/08/21 00:16:15;;;;;;;8.72;5.84;;;;;;;13.79;100.00;101470.34;171300;28;907;-67
2022/08/21 00:16:21;;;;;;;8.17;5.77;;;;;;;13.78;100.00;101468.66;171207;28;1038;-66
2022/08/21 00:16:27;;;;;;;7.90;5.82;;;;;;;13.79;100.00;101467.72;171288;28;848;-67
2022/08/21 00:16:32;;;;;;;7.93;5.87;;;;;;;13.78;100.00;101466.88;172464;28;1482;-67
2022/08/21 00:16:38;;;;;;;8.93;5.90;;;;;;;13.78;100.00;101463.41;172648;28;919;-66
2022/08/21 00:16:44;;;;;;;9.77;5.93;;;;;;;13.79;100.00;101465.09;173197;28;859;-67
2022/08/21 00:16:49;;;;;;;10.27;5.93;;;;;;;13.80;100.00;101466.81;173340;28;918;-67
2022/08/21 00:16:55;;;;;;;10.40;6.00;;;;;;;13.80;100.00;101464.19;173332;28;1037;-66
2022/08/21 00:17:02;;;;;;;10.63;6.03;;;;;;;13.80;100.00;101469.44;173358;28;934;-66
2022/08/21 00:17:08;;;;;;;10.08;6.00;;;;;;;13.80;100.00;101463.34;173317;28;1088;-64
2022/08/21 00:17:13;;;;;;;8.63;5.90;;;;;;;13.80;100.00;101468.59;173354;28;1116;-64
2022/08/21 00:17:18;;;;;;;8.20;5.93;;;;;;;13.79;100.00;101467.72;173353;28;732;-65
2022/08/21 00:17:24;;;;;;;7.97;5.83;;;;;;;13.80;100.00;101464.19;172791;28;958;-64
2022/08/21 00:17:29;;;;;;;7.55;5.80;;;;;;;13.79;100.00;101465.09;173317;28;1096;-64
2022/08/21 00:17:36;;;;;;;7.37;5.80;;;;;;;13.81;100.00;101462.41;173655;28;1021;-65
2022/08/21 00:17:41;;;;;;;8.52;5.88;;;;;;;13.80;100.00;101464.19;174041;28;1085;-64
2022/08/21 00:17:47;;;;;;;8.97;5.97;;;;;;;13.80;100.00;101469.44;174002;28;934;-65
2022/08/21 00:17:54;;;;;;;9.55;6.10;;;;;;;13.80;100.00;101469.44;174017;28;764;-64
2022/08/21 00:18:00;;;;;;;9.82;6.08;;;;;;;13.80;100.00;101464.19;174000;28;1077;-65
2022/08/21 00:18:10;;;;;;;10.10;6.00;;;;;;;13.80;100.00;101460.72;173246;28;1064;-65
2022/08/21 00:18:18;;;;;;;10.29;5.94;;;;;;;13.81;100.00;101467.66;173347;28;1170;-65
2022/08/21 00:18:25;;;;;;;9.38;5.90;;;;;;;13.80;100.00;101463.34;173059;28;1404;-65
2022/08/21 00:18:31;;;;;;;9.52;6.14;;;;;;;13.80;100.00;101464.19;173122;28;1010;-65
2022/08/21 00:18:37;;;;;;;9.50;6.25;;;;;;;13.80;100.00;101469.44;172687;28;1049;-65
2022/08/21 00:18:43;;;;;;;8.37;6.37;;;;;;;13.81;100.00;101468.50;172724;28;1046;-65
2022/08/21 00:18:49;;;;;;;9.13;6.40;;;;;;;13.80;100.00;101464.19;172629;28;871;-65
2022/08/21 00:18:54;;;;;;;9.90;6.27;;;;;;;13.80;100.00;101461.56;172699;28;875;-65
2022/08/21 00:19:00;;;;;;;10.23;6.07;;;;;;;13.79;100.00;101462.47;172685;28;851;-66
2022/08/21 00:19:06;;;;;;;9.98;5.93;;;;;;;13.80;100.00;101463.34;171878;28;1408;-66
2022/08/21 00:19:12;;;;;;;10.00;5.87;;;;;;;13.80;100.00;101468.59;172017;28;1077;-66
2022/08/21 00:19:17;;;;;;;9.48;5.78;;;;;;;13.78;100.00;101460.78;171983;28;851;-66
2022/08/21 00:19:24;;;;;;;9.03;5.90;;;;;;;13.78;100.00;101461.66;172343;28;1088;-66
2022/08/21 00:19:31;;;;;;;9.80;6.00;;;;;;;13.78;100.00;101455.53;172650;28;919;-66
2022/08/21 00:19:36;;;;;;;9.84;5.92;;;;;;;13.78;100.00;101466.88;172652;28;958;-65
2022/08/21 00:19:42;;;;;;;9.83;5.90;;;;;;;13.78;100.00;101460.78;172717;28;954;-65
2022/08/21 00:19:47;;;;;;;10.40;5.80;;;;;;;13.77;100.00;101459.94;172672;28;851;-65
2022/08/21 00:19:52;;;;;;;10.43;5.70;;;;;;;13.76;100.00;101463.47;172643;28;918;-64
2022/08/21 00:19:58;;;;;;;9.70;5.70;;;;;;;13.77;100.00;101456.47;172674;28;840;-64
2022/08/21 00:20:08;;;;;;;9.45;5.78;;;;;;;13.76;100.00;101460.84;173006;28;1181;-64
2022/08/21 00:20:16;;;;;;;9.49;5.81;;;;;;;13.76;100.00;101463.47;173375;28;1137;-65
2022/08/21 00:20:23;;;;;;;9.18;5.87;;;;;;;13.76;100.00;101465.25;173339;28;1140;-65
2022/08/21 00:20:28;;;;;;;8.36;5.78;;;;;;;13.76;100.00;101455.59;173289;28;970;-65
2022/08/21 00:20:34;;;;;;;7.97;5.80;;;;;;;13.75;100.00;101455.66;173334;28;1148;-65
2022/08/21 00:20:43;;;;;;;7.63;5.82;;;;;;;13.74;100.00;101460.09;173346;28;1025;-65
2022/08/21 00:20:48;;;;;;;7.59;6.01;;;;;;;13.74;100.00;101459.22;173231;28;1341;-66
2022/08/21 00:20:54;;;;;;;7.82;6.03;;;;;;;13.73;100.00;101455.75;173322;28;985;-66
2022/08/21 00:21:00;;;;;;;7.90;6.10;;;;;;;13.73;100.00;101454.91;173329;28;907;-65
2022/08/21 00:21:05;;;;;;;8.38;6.10;;;;;;;13.74;100.00;101453.97;173968;28;962;-66
2022/08/21 00:21:15;;;;;;;8.82;6.25;;;;;;;13.73;100.00;101463.63;174021;28;1037;-66
2022/08/21 00:21:22;;;;;;;8.67;6.10;;;;;;;13.73;100.00;101457.53;174041;28;1073;-66
2022/08/21 00:21:27;;;;;;;8.98;6.32;;;;;;;13.73;100.00;101457.53;173271;28;1418;-66
2022/08/21 00:21:34;;;;;;;9.20;6.47;;;;;;;13.73;100.00;101457.53;173347;28;890;-66
2022/08/21 00:21:39;;;;;;;9.27;6.37;;;;;;;13.73;100.00;101457.53;173372;28;965;-66
2022/08/21 00:21:45;;;;;;;8.75;6.20;;;;;;;13.72;100.00;101461.91;173378;28;981;-66
2022/08/21 00:21:53;;;;;;;8.13;6.03;;;;;;;13.72;100.00;101461.06;173356;28;1149;-66
2022/08/21 00:21:59;;;;;;;8.17;5.83;;;;;;;13.72;100.00;101461.91;173367;28;1124;-66
2022/08/21 00:22:04;;;;;;;8.57;5.78;;;;;;;13.71;100.00;101457.59;173296;28;966;-66
2022/08/21 00:22:09;;;;;;;8.23;5.80;;;;;;;13.71;100.00;101457.59;173350;28;1025;-66
2022/08/21 00:22:15;;;;;;;8.52;6.03;;;;;;;13.71;100.00;101452.34;173299;28;1068;-66
2022/08/21 00:22:20;;;;;;;9.20;6.17;;;;;;;13.71;100.00;101459.34;173345;28;844;-66
2022/08/21 00:22:26;;;;;;;9.30;6.40;;;;;;;13.71;100.00;101459.34;173346;28;1053;-66
2022/08/21 00:22:31;;;;;;;8.90;6.40;;;;;;;13.71;100.00;101459.34;173345;28;902;-66
2022/08/21 00:22:40;;;;;;;9.02;6.35;;;;;;;13.70;100.00;101453.28;173250;28;863;-66
2022/08/21 00:22:46;;;;;;;8.95;6.28;;;;;;;13.70;100.00;101458.53;173378;28;949;-65
2022/08/21 00:22:51;;;;;;;8.93;6.25;;;;;;;13.70;100.00;101455.91;173339;28;840;-65
2022/08/21 00:22:57;;;;;;;9.10;6.05;;;;;;;13.70;100.00;101453.28;173317;28;1037;-65
2022/08/21 00:23:03;;;;;;;9.00;6.00;;;;;;;13.71;100.00;101459.34;173341;28;926;-65
2022/08/21 00:23:09;;;;;;;8.70;6.07;;;;;;;13.69;100.00;101456.81;173362;28;982;-65
2022/08/21 00:23:15;;;;;;;9.05;6.07;;;;;;;13.70;100.00;101458.53;173381;28;1081;-65
2022/08/21 00:23:20;;;;;;;9.30;6.18;;;;;;;13.70;100.00;101457.66;173315;28;1041;-65
2022/08/21 00:23:26;;;;;;;9.18;6.30;;;;;;;13.70;100.00;101458.53;173741;28;934;-65
2022/08/21 00:23:35;;;;;;;9.70;6.50;;;;;;;13.70;100.00;101455.03;173240;28;1835;-65
2022/08/21 00:23:41;;;;;;;10.34;6.36;;;;;;;13.70;100.00;101457.66;173329;28;1034;-65
2022/08/21 00:23:46;;;;;;;9.15;6.22;;;;;;;13.69;100.00;101455.97;173367;28;985;-65
2022/08/21 00:23:52;;;;;;;9.18;6.03;;;;;;;13.69;100.00;101466.47;173359;28;863;-66
2022/08/21 00:23:57;;;;;;;9.05;5.88;;;;;;;13.69;100.00;101471.72;173247;28;1971;-66
2022/08/21 00:24:03;;;;;;;9.30;5.80;;;;;;;13.68;100.00;101464.75;173341;28;1295;-66
2022/08/21 00:24:09;;;;;;;8.30;5.80;;;;;;;13.67;100.00;101469.16;173339;28;1423;-66
2022/08/21 00:24:14;;;;;;;9.30;5.90;;;;;;;13.68;100.00;101459.53;173386;28;1033;-65
2022/08/21 00:24:22;;;;;;;9.57;6.05;;;;;;;13.68;100.00;101462.16;173316;28;1021;-65
2022/08/21 00:24:27;;;;;;;10.43;6.20;;;;;;;13.68;100.00;101462.97;173375;28;883;-66
2022/08/21 00:24:33;;;;;;;10.73;6.25;;;;;;;13.68;100.00;101464.75;173321;28;1076;-65
2022/08/21 00:24:38;;;;;;;10.90;6.30;;;;;;;13.68;100.00;101462.16;173297;28;915;-66
2022/08/21 00:24:44;;;;;;;11.53;6.27;;;;;;;13.69;100.00;101455.97;173362;28;1017;-66
2022/08/21 00:24:49;;;;;;;11.50;6.17;;;;;;;13.69;100.00;101461.22;172828;28;933;-65
2022/08/21 00:24:55;;;;;;;10.75;6.05;;;;;;;13.68;100.00;101462.16;172587;28;1296;-65
2022/08/21 00:25:01;;;;;;;9.37;6.00;;;;;;;13.68;100.00;101460.34;172591;28;955;-65
2022/08/21 00:25:10;;;;;;;9.47;6.07;;;;;;;13.68;100.00;101467.38;173255;28;894;-66
2022/08/21 00:25:18;;;;;;;8.99;6.01;;;;;;;13.69;100.00;101455.97;173362;28;1089;-65
2022/08/21 00:25:24;;;;;;;11.20;6.00;;;;;;;13.68;100.00;101465.59;172585;28;1715;-66
2022/08/21 00:25:30;;;;;;;14.37;6.10;;;;;;;13.68;100.00;101467.38;172934;28;1140;-65
2022/08/21 00:25:37;;;;;;;14.88;6.10;;;;;;;13.67;100.00;101463.03;173365;28;907;-65
2022/08/21 00:25:44;;;;;;;14.56;6.12;;;;;;;13.68;100.00;101462.16;173325;28;883;-65
2022/08/21 00:25:50;;;;;;;13.27;6.20;;;;;;;13.67;100.00;101457.78;173327;28;969;-65
2022/08/21 00:25:55;;;;;;;10.77;6.17;;;;;;;13.67;100.00;101463.03;173334;28;1100;-65
2022/08/21 00:26:00;;;;;;;8.32;6.07;;;;;;;13.67;100.00;101457.78;172581;28;1065;-65
2022/08/21 00:26:06;;;;;;;7.93;6.10;;;;;;;13.67;100.00;101463.91;172697;28;871;-65
2022/08/21 00:26:12;;;;;;;8.57;6.20;;;;;;;13.68;100.00;101465.59;172625;28;1267;-65
2022/08/21 00:26:17;;;;;;;9.03;6.30;;;;;;;13.67;100.00;101465.66;172711;28;982;-65
2022/08/21 00:26:23;;;;;;;9.32;6.22;;;;;;;13.67;100.00;101461.28;172668;28;898;-65
2022/08/21 00:26:28;;;;;;;10.00;6.27;;;;;;;13.67;100.00;101463.03;172543;28;1325;-65
2022/08/21 00:26:34;;;;;;;11.07;6.38;;;;;;;13.67;100.00;101453.41;172648;28;893;-66
2022/08/21 00:26:39;;;;;;;10.60;6.23;;;;;;;13.67;100.00;101461.28;172667;28;844;-65
2022/08/21 00:26:46;;;;;;;9.68;6.10;;;;;;;13.68;100.00;101470.00;172601;28;1084;-65
2022/08/21 00:26:52;;;;;;;9.88;6.10;;;;;;;13.68;100.00;101459.53;172665;28;943;-65
2022/08/21 00:26:58;;;;;;;9.82;6.15;;;;;;;13.67;100.00;101463.03;172651;28;1033;-65
2022/08/21 00:27:04;;;;;;;9.40;6.00;;;;;;;13.67;100.00;101457.78;172693;28;946;-65
2022/08/21 00:27:09;;;;;;;9.37;6.00;;;;;;;13.67;100.00;101463.03;172568;28;1335;-65
2022/08/21 00:27:14;;;;;;;9.30;5.95;;;;;;;13.67;100.00;101460.41;172678;28;1089;-64
2022/08/21 00:27:20;;;;;;;9.47;6.10;;;;;;;13.66;100.00;101464.84;172738;28;918;-65
2022/08/21 00:27:25;;;;;;;9.23;6.17;;;;;;;13.66;100.00;101459.59;173346;28;1028;-65
2022/08/21 00:27:31;;;;;;;9.02;6.20;;;;;;;13.67;100.00;101457.78;173350;28;919;-65
2022/08/21 00:27:37;;;;;;;9.83;6.20;;;;;;;13.68;100.00;101464.75;173309;28;1092;-65
2022/08/21 00:27:43;;;;;;;12.27;6.40;;;;;;;13.67;100.00;101463.03;173371;28;863;-65
2022/08/21 00:27:48;;;;;;;12.50;6.47;;;;;;;13.67;100.00;101463.03;173345;28;871;-66
2022/08/21 00:27:55;;;;;;;11.70;6.20;;;;;;;13.68;100.00;101464.75;173332;28;855;-66
2022/08/21 00:28:01;;;;;;;11.70;6.13;;;;;;;13.68;100.00;101464.75;173944;28;882;-65
2022/08/21 00:28:08;;;;;;;10.38;6.10;;;;;;;13.68;100.00;101464.75;174020;28;796;-65
2022/08/21 00:28:13;;;;;;;9.45;6.07;;;;;;;13.69;100.00;101461.22;174044;28;902;-65
2022/08/21 00:28:19;;;;;;;9.60;6.05;;;;;;;13.68;100.00;101470.00;173984;28;1088;-65
2022/08/21 00:28:24;;;;;;;10.07;6.20;;;;;;;13.68;100.00;101465.59;174031;28;839;-65
2022/08/21 00:28:30;;;;;;;10.18;6.30;;;;;;;13.68;100.00;101465.59;173270;28;1245;-65
2022/08/21 00:28:35;;;;;;;10.45;6.40;;;;;;;13.68;100.00;101464.75;173305;28;1132;-65
2022/08/21 00:28:41;;;;;;;10.63;6.43;;;;;;;13.68;100.00;101464.75;173358;28;1096;-65
2022/08/21 00:28:48;;;;;;;9.57;6.45;;;;;;;13.68;100.00;101464.75;173398;28;910;-66
2022/08/21 00:28:53;;;;;;;9.24;6.24;;;;;;;13.67;100.00;101463.91;173293;28;990;-66
2022/08/21 00:28:59;;;;;;;9.33;6.23;;;;;;;13.67;100.00;101460.41;173367;28;1096;-66
2022/08/21 00:29:04;;;;;;;9.32;6.22;;;;;;;13.67;100.00;101458.66;173338;28;926;-66
2022/08/21 00:29:09;;;;;;;9.10;6.30;;;;;;;13.67;100.00;101457.78;173300;28;856;-66
2022/08/21 00:29:15;;;;;;;9.23;6.30;;;;;;;13.68;100.00;101459.53;173354;28;1092;-65
2022/08/21 00:29:21;;;;;;;8.98;6.45;;;;;;;13.67;100.00;101469.16;173305;28;986;-65
2022/08/21 00:29:26;;;;;;;9.65;6.50;;;;;;;13.67;100.00;101463.03;173292;28;1061;-66
2022/08/21 00:29:31;;;;;;;9.47;6.40;;;;;;;13.67;100.00;101469.16;173340;28;1041;-66
2022/08/21 00:29:37;;;;;;;9.33;6.33;;;;;;;13.65;100.00;101463.97;173354;28;934;-65
2022/08/21 00:29:42;;;;;;;9.10;6.30;;;;;;;13.65;100.00;101461.34;173351;28;911;-65
2022/08/21 00:29:47;;;;;;;9.70;6.53;;;;;;;13.67;100.00;101465.66;173381;28;1029;-65
2022/08/21 00:29:53;;;;;;;9.63;6.40;;;;;;;13.66;100.00;101467.47;173343;28;847;-65
2022/08/21 00:29:58;;;;;;;10.02;6.53;;;;;;;13.66;100.00;101462.22;173353;28;875;-65
2022/08/21 00:30:07;;;;;;;10.83;6.77;;;;;;;13.67;100.00;101457.78;173316;28;848;-65
2022/08/21 00:30:16;;;;;;;11.27;6.67;;;;;;;13.67;100.00;101468.28;173371;28;910;-65
2022/08/21 00:30:25;;;;;;;12.64;6.57;;;;;;;13.67;100.00;101463.03;173308;28;1097;-65